createdAt,value
2018-12-11T00:02:07.991Z,85.20
2018-12-11T00:04:39.067Z,87.63
2018-12-11T00:07:12.379Z,86.90
2018-12-11T00:09:43.323Z,87.28
2018-12-11T00:12:14.797Z,87.18
2018-12-11T00:14:45.781Z,86.59
2018-12-11T00:17:16.691Z,87.25
2018-12-11T00:19:50.224Z,86.16
2018-12-11T00:22:21.295Z,85.54
2018-12-11T00:24:52.262Z,86.54
2018-12-11T00:27:23.228Z,85.65
2018-12-11T00:29:54.177Z,84.93
2018-12-11T00:32:25.175Z,84.67
2018-12-11T00:34:56.104Z,86.15
2018-12-11T00:37:26.991Z,84.49
2018-12-11T00:39:58.324Z,85.71
2018-12-11T00:42:31.863Z,86.10
2018-12-11T00:45:06.647Z,84.80
2018-12-11T00:47:37.759Z,86.12
2018-12-11T00:50:08.919Z,86.41
2018-12-11T00:52:39.764Z,86.32
2018-12-11T00:55:11.035Z,86.75
2018-12-11T00:57:42.171Z,86.55
2018-12-11T01:00:13.559Z,85.87
2018-12-11T01:02:45.515Z,85.66
2018-12-11T01:05:15.354Z,86.54
2018-12-11T01:07:46.291Z,87.77
2018-12-11T01:10:17.631Z,87.58
2018-12-11T01:12:48.611Z,86.27
2018-12-11T01:15:22.481Z,85.39
2018-12-11T01:17:54.060Z,86.41
2018-12-11T01:20:25.163Z,85.55
2018-12-11T01:22:58.543Z,86.74
2018-12-11T01:25:30.291Z,85.72
2018-12-11T01:28:01.582Z,87.36
2018-12-11T01:30:32.567Z,85.90
2018-12-11T01:33:03.583Z,86.62
2018-12-11T01:38:03.630Z,86.69
2018-12-11T01:40:34.491Z,85.18
2018-12-11T01:43:05.736Z,85.22
2018-12-11T01:45:36.827Z,86.57
2018-12-11T01:48:07.769Z,86.72
2018-12-11T01:50:38.792Z,86.04
2018-12-11T01:53:09.867Z,86.14
2018-12-11T01:55:40.778Z,85.84
2018-12-11T01:58:12.081Z,86.79
2018-12-11T02:00:45.611Z,86.00
2018-12-11T02:03:16.987Z,86.52
2018-12-11T02:05:47.953Z,86.74
2018-12-11T02:08:18.883Z,87.94
2018-12-11T02:10:49.971Z,87.27
2018-12-11T02:13:21.199Z,87.58
2018-12-11T02:15:55.435Z,87.16
2018-12-11T02:18:26.964Z,87.34
2018-12-11T02:20:58.176Z,87.10
2018-12-11T02:26:25.859Z,85.66
2018-12-11T02:28:56.829Z,86.38
2018-12-11T02:31:30.591Z,85.80
2018-12-11T02:34:02.127Z,86.41
2018-12-11T02:36:33.145Z,85.46
2018-12-11T02:39:06.766Z,86.01
2018-12-11T02:41:38.247Z,86.86
2018-12-11T02:44:09.184Z,87.42
2018-12-11T02:46:40.204Z,86.44
2018-12-11T02:49:13.798Z,87.03
2018-12-11T02:51:47.811Z,87.17
2018-12-11T02:54:21.847Z,86.21
2018-12-11T02:56:53.185Z,86.89
2018-12-11T02:59:24.167Z,87.23
2018-12-11T03:01:55.328Z,87.59
2018-12-11T03:04:28.734Z,87.19
2018-12-11T03:07:00.010Z,86.88
2018-12-11T03:09:33.361Z,87.44
2018-12-11T03:12:07.550Z,87.67
2018-12-11T03:14:39.025Z,87.36
2018-12-11T03:17:09.904Z,87.20
2018-12-11T03:19:41.059Z,86.91
2018-12-11T03:22:11.829Z,87.05
2018-12-11T03:24:42.809Z,87.34
2018-12-11T03:27:14.033Z,87.19
2018-12-11T03:29:45.344Z,86.40
2018-12-11T03:32:16.669Z,87.06
2018-12-11T03:34:48.125Z,86.43
2018-12-11T03:37:19.057Z,87.17
2018-12-11T03:39:50.109Z,86.55
2018-12-11T03:42:20.856Z,86.66
2018-12-11T03:44:51.987Z,87.61
2018-12-11T03:47:23.082Z,86.67
2018-12-11T03:49:54.105Z,87.15
2018-12-11T03:52:25.208Z,86.22
2018-12-11T03:54:56.060Z,87.17
2018-12-11T03:57:27.120Z,87.46
2018-12-11T03:59:58.895Z,87.20
2018-12-11T04:02:30.644Z,86.84
2018-12-11T04:05:01.666Z,87.54
2018-12-11T04:07:35.363Z,87.44
2018-12-11T04:10:08.297Z,87.41
2018-12-11T04:12:39.138Z,86.85
2018-12-11T04:15:09.321Z,87.50
2018-12-11T04:17:40.372Z,87.56
2018-12-11T04:20:11.451Z,88.21
2018-12-11T04:22:45.208Z,88.17
2018-12-11T04:25:16.743Z,87.27
2018-12-11T04:27:47.690Z,87.63
2018-12-11T04:30:21.087Z,87.05
2018-12-11T04:32:52.315Z,87.95
2018-12-11T04:35:25.794Z,86.58
2018-12-11T04:37:57.374Z,87.14
2018-12-11T04:40:30.940Z,87.48
2018-12-11T04:43:02.379Z,87.67
2018-12-11T04:45:34.210Z,87.33
2018-12-11T04:48:07.576Z,87.49
2018-12-11T04:50:39.054Z,87.02
2018-12-11T04:56:20.100Z,87.59
2018-12-11T04:58:50.991Z,88.25
2018-12-11T05:01:22.201Z,87.72
2018-12-11T05:03:53.318Z,87.44
2018-12-11T05:06:24.483Z,87.61
2018-12-11T05:08:55.374Z,88.16
2018-12-11T05:11:26.376Z,87.64
2018-12-11T05:13:57.563Z,87.29
2018-12-11T05:16:28.475Z,86.63
2018-12-11T05:19:04.124Z,86.95
2018-12-11T05:21:35.883Z,86.91
2018-12-11T05:24:06.888Z,86.93
2018-12-11T05:26:37.869Z,86.70
2018-12-11T05:29:11.466Z,86.91
2018-12-11T05:31:42.835Z,86.75
2018-12-11T05:34:13.940Z,86.39
2018-12-11T05:36:47.445Z,87.10
2018-12-11T05:39:19.008Z,87.04
2018-12-11T05:41:50.197Z,88.44
2018-12-11T05:44:20.984Z,86.95
2018-12-11T05:46:52.478Z,87.67
2018-12-11T05:49:23.374Z,87.69
2018-12-11T05:51:54.594Z,87.83
2018-12-11T05:54:25.751Z,87.36
2018-12-11T05:56:56.996Z,87.71
2018-12-11T05:59:28.722Z,87.86
2018-12-11T06:01:59.771Z,87.15
2018-12-11T06:04:33.154Z,88.10
2018-12-11T06:07:04.803Z,88.03
2018-12-11T06:09:35.859Z,87.40
2018-12-11T06:12:06.876Z,87.97
2018-12-11T06:14:37.739Z,87.41
2018-12-11T06:17:09.047Z,87.84
2018-12-11T06:19:41.009Z,87.71
2018-12-11T06:22:12.132Z,87.07
2018-12-11T06:24:43.287Z,87.84
2018-12-11T06:27:14.966Z,87.96
2018-12-11T06:29:45.917Z,88.15
2018-12-11T06:32:17.090Z,88.65
2018-12-11T06:34:48.282Z,87.84
2018-12-11T06:37:22.615Z,87.50
2018-12-11T06:39:56.463Z,88.60
2018-12-11T06:42:28.419Z,88.72
2018-12-11T06:45:00.451Z,88.76
2018-12-11T06:47:31.991Z,88.32
2018-12-11T06:50:04.392Z,88.56
2018-12-11T06:52:35.679Z,88.39
2018-12-11T06:55:07.135Z,87.25
2018-12-11T06:57:38.666Z,87.81
2018-12-11T07:00:10.243Z,87.72
2018-12-11T07:02:41.438Z,88.16
2018-12-11T07:05:12.938Z,87.83
2018-12-11T07:07:43.983Z,88.20
2018-12-11T07:10:17.656Z,88.12
2018-12-11T07:12:48.660Z,88.49
2018-12-11T07:15:19.812Z,88.11
2018-12-11T07:17:50.877Z,88.04
2018-12-11T07:20:21.720Z,87.69
2018-12-11T07:22:55.526Z,88.33
2018-12-11T07:25:29.500Z,88.63
2018-12-11T07:28:00.823Z,88.07
2018-12-11T07:30:32.099Z,87.33
2018-12-11T07:33:03.641Z,88.20
2018-12-11T07:35:35.319Z,88.29
2018-12-11T07:38:06.132Z,88.26
2018-12-11T07:40:37.422Z,88.13
2018-12-11T07:43:09.119Z,88.02
2018-12-11T07:45:40.384Z,88.46
2018-12-11T07:48:11.447Z,87.82
2018-12-11T07:50:45.128Z,88.09
2018-12-11T07:53:16.383Z,88.69
2018-12-11T07:55:47.420Z,87.27
2018-12-11T07:58:18.623Z,88.35
2018-12-11T08:00:52.030Z,87.56
2018-12-11T08:03:26.134Z,88.35
2018-12-11T08:06:00.295Z,88.44
2018-12-11T08:08:31.593Z,88.38
2018-12-11T08:11:02.557Z,88.60
2018-12-11T08:13:36.096Z,88.73
2018-12-11T08:16:07.388Z,88.15
2018-12-11T08:18:40.864Z,87.85
2018-12-11T08:21:10.553Z,87.71
2018-12-11T08:23:41.379Z,87.84
2018-12-11T08:26:12.439Z,88.09
2018-12-11T08:28:43.540Z,87.92
2018-12-11T08:31:14.808Z,87.84
2018-12-11T08:33:45.580Z,87.75
2018-12-11T08:36:16.795Z,88.18
2018-12-11T08:38:47.942Z,87.51
2018-12-11T08:41:21.352Z,87.68
2018-12-11T08:43:50.895Z,86.80
2018-12-11T08:46:22.207Z,86.39
2018-12-11T08:48:56.409Z,87.08
2018-12-11T08:51:30.428Z,87.27
2018-12-11T08:54:01.899Z,86.80
2018-12-11T08:56:33.159Z,87.69
2018-12-11T08:59:06.728Z,87.00
2018-12-11T09:01:37.013Z,86.62
2018-12-11T09:04:08.099Z,85.88
2018-12-11T09:06:39.199Z,86.42
2018-12-11T09:09:09.935Z,86.98
2018-12-11T09:11:40.689Z,85.83
2018-12-11T09:14:11.879Z,86.73
2018-12-11T09:16:42.811Z,86.38
2018-12-11T09:22:17.574Z,85.68
2018-12-11T09:24:48.819Z,85.79
2018-12-11T09:27:22.349Z,85.92
2018-12-11T09:29:53.703Z,84.93
2018-12-11T09:32:24.748Z,84.61
2018-12-11T09:34:55.815Z,85.24
2018-12-11T09:37:29.375Z,85.95
2018-12-11T09:40:00.841Z,85.60
2018-12-11T09:45:05.241Z,84.76
2018-12-11T09:50:40.663Z,85.30
2018-12-11T09:53:11.814Z,84.69
2018-12-11T09:55:43.045Z,84.46
2018-12-11T09:58:14.087Z,84.37
2018-12-11T10:00:45.012Z,84.18
2018-12-11T10:03:16.323Z,84.50
2018-12-11T10:05:49.645Z,85.04
2018-12-11T10:08:21.119Z,84.20
2018-12-11T10:10:52.400Z,83.69
2018-12-11T10:13:23.395Z,84.46
2018-12-11T10:15:54.709Z,83.81
2018-12-11T10:18:25.657Z,84.06
2018-12-11T10:20:56.867Z,83.19
2018-12-11T10:23:31.841Z,83.66
2018-12-11T10:26:01.039Z,84.59
2018-12-11T10:28:32.095Z,83.38
2018-12-11T10:31:03.294Z,83.53
2018-12-11T10:33:34.283Z,82.69
2018-12-11T10:36:07.797Z,83.43
2018-12-11T10:38:39.182Z,81.19
2018-12-11T10:41:10.276Z,83.41
2018-12-11T10:43:41.103Z,81.76
2018-12-11T10:46:12.283Z,83.21
2018-12-11T10:48:44.069Z,81.82
2018-12-11T10:51:15.159Z,79.94
2018-12-11T10:53:48.622Z,80.98
2018-12-11T10:56:19.984Z,81.63
2018-12-11T10:58:53.294Z,81.56
2018-12-11T11:01:26.855Z,83.03
2018-12-11T11:03:58.308Z,81.20
2018-12-11T11:06:31.860Z,81.56
2018-12-11T11:09:05.822Z,81.36
2018-12-11T11:11:37.071Z,77.26
2018-12-11T11:14:10.474Z,80.10
2018-12-11T11:16:41.987Z,79.48
2018-12-11T11:19:13.000Z,81.22
2018-12-11T11:21:44.276Z,79.54
2018-12-11T11:24:15.120Z,80.93
2018-12-11T11:26:46.127Z,80.32
2018-12-11T11:29:17.323Z,81.45
2018-12-11T11:34:52.486Z,81.56
2018-12-11T11:37:23.382Z,79.27
2018-12-11T11:39:54.611Z,80.92
2018-12-11T11:42:25.852Z,80.96
2018-12-11T11:44:56.998Z,76.67
2018-12-11T11:47:27.949Z,76.64
2018-12-11T11:49:58.956Z,78.42
2018-12-11T11:52:29.763Z,77.42
2018-12-11T11:55:00.967Z,78.00
2018-12-11T11:57:32.359Z,77.77
2018-12-11T12:00:07.069Z,78.66
2018-12-11T12:02:38.647Z,73.48
2018-12-11T12:05:09.643Z,77.64
2018-12-11T12:07:40.579Z,79.33
2018-12-11T12:10:13.034Z,76.24
2018-12-11T12:12:44.304Z,75.08
2018-12-11T12:15:16.003Z,77.79
2018-12-11T12:17:47.039Z,76.31
2018-12-11T12:20:18.626Z,76.73
2018-12-11T12:22:50.212Z,75.14
2018-12-11T12:25:19.689Z,74.29
2018-12-11T12:27:50.600Z,74.46
2018-12-11T12:30:23.387Z,75.58
2018-12-11T12:32:52.455Z,76.43
2018-12-11T12:35:23.606Z,73.36
2018-12-11T12:37:55.181Z,74.33
2018-12-11T12:40:26.462Z,75.63
2018-12-11T12:42:57.683Z,73.87
2018-12-11T12:48:01.186Z,72.79
2018-12-11T12:50:32.175Z,74.40
2018-12-11T12:53:03.203Z,74.36
2018-12-11T12:55:33.945Z,70.66
2018-12-11T12:58:05.763Z,70.68
2018-12-11T13:00:37.031Z,71.69
2018-12-11T13:03:08.201Z,68.59
2018-12-11T13:05:39.967Z,66.67
2018-12-11T13:08:11.680Z,69.54
2018-12-11T13:10:43.023Z,68.82
2018-12-11T13:13:14.671Z,71.34
2018-12-11T13:15:48.223Z,71.82
2018-12-11T13:18:19.807Z,73.32
2018-12-11T13:20:50.732Z,69.51
2018-12-11T13:23:21.692Z,68.39
2018-12-11T13:25:52.819Z,70.70
2018-12-11T13:28:24.451Z,69.03
2018-12-11T13:30:55.849Z,67.99
2018-12-11T13:33:27.572Z,69.15
2018-12-11T13:35:58.852Z,71.25
2018-12-11T13:38:29.736Z,70.91
2018-12-11T13:41:04.259Z,69.73
2018-12-11T13:43:35.347Z,70.30
2018-12-11T13:46:06.541Z,71.66
2018-12-11T13:51:09.767Z,74.36
2018-12-11T13:53:41.243Z,71.49
2018-12-11T13:56:12.324Z,72.93
2018-12-11T13:58:43.131Z,73.87
2018-12-11T14:01:14.095Z,74.96
2018-12-11T14:03:45.551Z,72.95
2018-12-11T14:06:17.267Z,74.71
2018-12-11T14:08:52.293Z,76.08
2018-12-11T14:11:23.301Z,75.05
2018-12-11T14:13:54.264Z,76.67
2018-12-11T14:16:25.520Z,75.04
2018-12-11T14:18:56.419Z,74.16
2018-12-11T14:21:27.688Z,73.23
2018-12-11T14:23:58.560Z,73.24
2018-12-11T14:26:30.088Z,75.22
2018-12-11T14:29:01.788Z,74.75
2018-12-11T14:31:32.815Z,76.11
2018-12-11T14:34:06.811Z,73.98
2018-12-11T14:36:41.478Z,74.48
2018-12-11T14:39:15.247Z,74.49
2018-12-11T14:41:46.950Z,74.89
2018-12-11T14:44:20.580Z,75.73
2018-12-11T14:46:51.928Z,75.45
2018-12-11T14:49:23.927Z,77.15
2018-12-11T14:51:57.504Z,74.04
2018-12-11T14:54:28.935Z,74.23
2018-12-11T14:57:00.662Z,74.46
2018-12-11T14:59:31.607Z,76.52
2018-12-11T15:02:05.402Z,74.49
2018-12-11T15:04:36.460Z,73.47
2018-12-11T15:07:07.516Z,75.53
2018-12-11T15:09:40.248Z,76.65
2018-12-11T15:12:12.203Z,77.66
2018-12-11T15:14:43.143Z,76.60
2018-12-11T15:17:14.150Z,75.57
2018-12-11T15:19:44.959Z,77.08
2018-12-11T15:22:16.199Z,75.67
2018-12-11T15:24:49.496Z,76.53
2018-12-11T15:27:21.071Z,76.70
2018-12-11T15:29:52.100Z,77.61
2018-12-11T15:32:22.985Z,77.13
2018-12-11T15:34:54.083Z,78.61
2018-12-11T15:37:24.903Z,75.99
2018-12-11T15:39:55.991Z,78.41
2018-12-11T15:42:26.959Z,79.28
2018-12-11T15:45:00.609Z,77.77
2018-12-11T15:47:31.971Z,80.11
2018-12-11T15:50:05.147Z,79.62
2018-12-11T15:52:37.191Z,79.72
2018-12-11T15:55:09.437Z,80.63
2018-12-11T15:57:40.407Z,79.53
2018-12-11T16:00:11.943Z,79.11
2018-12-11T16:02:43.594Z,79.61
2018-12-11T16:05:17.195Z,80.13
2018-12-11T16:07:51.227Z,80.52
2018-12-11T16:10:20.612Z,79.66
2018-12-11T16:12:53.900Z,81.36
2018-12-11T16:15:25.477Z,81.43
2018-12-11T16:17:56.393Z,79.02
2018-12-11T16:20:27.271Z,79.93
2018-12-11T16:23:01.164Z,80.58
2018-12-11T16:25:35.675Z,81.69
2018-12-11T16:28:06.546Z,81.12
2018-12-11T16:30:39.923Z,79.98
2018-12-11T16:33:13.704Z,81.78
2018-12-11T16:35:46.710Z,81.04
2018-12-11T16:38:18.171Z,80.92
2018-12-11T16:40:51.529Z,81.80
2018-12-11T16:43:23.031Z,81.13
2018-12-11T16:45:54.035Z,81.28
2018-12-11T16:48:25.049Z,81.87
2018-12-11T16:50:56.074Z,81.41
2018-12-11T16:53:26.975Z,82.19
2018-12-11T16:55:57.729Z,83.18
2018-12-11T16:58:26.933Z,81.59
2018-12-11T17:01:00.447Z,80.85
2018-12-11T17:03:31.939Z,81.09
2018-12-11T17:06:03.010Z,81.55
2018-12-11T17:08:36.475Z,82.81
2018-12-11T17:11:08.193Z,82.00
2018-12-11T17:13:38.970Z,81.94
2018-12-11T17:16:12.647Z,82.57
2018-12-11T17:18:43.967Z,82.16
2018-12-11T17:21:15.079Z,81.54
2018-12-11T17:23:46.931Z,81.59
2018-12-11T17:26:20.525Z,81.51
2018-12-11T17:28:51.876Z,82.55
2018-12-11T17:31:21.059Z,81.18
2018-12-11T17:33:52.119Z,81.63
2018-12-11T17:36:23.221Z,81.83
2018-12-11T17:38:57.027Z,82.52
2018-12-11T17:41:26.281Z,81.68
2018-12-11T17:43:55.529Z,82.41
2018-12-11T17:46:29.043Z,82.56
2018-12-11T17:49:00.426Z,81.75
2018-12-11T17:51:33.943Z,82.19
2018-12-11T17:54:05.351Z,81.64
2018-12-11T17:56:36.447Z,83.20
2018-12-11T17:59:07.405Z,83.71
2018-12-11T18:01:39.639Z,83.79
2018-12-11T18:04:13.056Z,83.54
2018-12-11T18:06:46.867Z,83.74
2018-12-11T18:09:18.395Z,83.00
2018-12-11T18:11:49.533Z,83.82
2018-12-11T18:14:21.271Z,82.93
2018-12-11T18:16:52.135Z,82.76
2018-12-11T18:19:23.227Z,84.53
2018-12-11T18:21:54.185Z,83.92
2018-12-11T18:24:25.004Z,84.75
2018-12-11T18:26:56.657Z,82.90
2018-12-11T18:29:28.751Z,83.45
2018-12-11T18:32:00.343Z,84.57
2018-12-11T18:34:33.378Z,82.67
2018-12-11T18:37:04.811Z,83.01
2018-12-11T18:39:36.210Z,82.94
2018-12-11T18:42:10.380Z,82.81
2018-12-11T18:44:41.437Z,82.89
2018-12-11T18:47:13.183Z,84.21
2018-12-11T18:49:44.824Z,83.56
2018-12-11T18:57:19.303Z,82.75
2018-12-11T18:59:52.776Z,83.30
2018-12-11T19:02:24.295Z,82.94
2018-12-11T19:04:55.427Z,83.05
2018-12-11T19:07:26.583Z,83.84
2018-12-11T19:09:57.724Z,84.08
2018-12-11T19:12:28.663Z,83.44
2018-12-11T19:15:04.747Z,83.47
2018-12-11T19:17:32.789Z,83.93
2018-12-11T19:20:04.854Z,83.05
2018-12-11T19:22:35.941Z,84.05
2018-12-11T19:25:12.627Z,83.04
2018-12-11T19:27:44.383Z,83.39
2018-12-11T19:30:16.304Z,83.16
2018-12-11T19:32:47.918Z,82.89
2018-12-11T19:35:18.716Z,83.06
2018-12-11T19:37:49.897Z,83.23
2018-12-11T19:40:20.845Z,82.55
2018-12-11T19:42:51.790Z,82.63
2018-12-11T19:45:22.955Z,83.08
2018-12-11T19:47:52.743Z,82.47
2018-12-11T19:50:26.298Z,83.08
2018-12-11T19:52:57.583Z,83.28
2018-12-11T19:55:28.527Z,84.20
2018-12-11T19:57:59.942Z,83.34
2018-12-11T20:00:31.263Z,83.53
2018-12-11T20:03:02.183Z,82.17
2018-12-11T20:05:33.275Z,82.39
2018-12-11T20:08:04.259Z,83.17
2018-12-11T20:10:35.245Z,84.04
2018-12-11T20:13:06.179Z,83.37
2018-12-11T20:15:37.272Z,83.43
2018-12-11T20:18:12.887Z,83.78
2018-12-11T20:20:41.652Z,83.96
2018-12-11T20:23:13.292Z,82.90
2018-12-11T20:25:44.357Z,83.28
2018-12-11T20:28:16.025Z,82.79
2018-12-11T20:30:47.124Z,84.52
2018-12-11T20:33:18.775Z,83.99
2018-12-11T20:35:50.914Z,83.64
2018-12-11T20:38:22.127Z,83.96
2018-12-11T20:40:53.200Z,83.15
2018-12-11T20:43:24.204Z,83.74
2018-12-11T20:45:55.362Z,83.61
2018-12-11T20:48:30.057Z,83.90
2018-12-11T20:51:01.895Z,83.99
2018-12-11T20:53:35.488Z,83.94
2018-12-11T20:56:06.951Z,83.74
2018-12-11T20:58:37.852Z,83.62
2018-12-11T21:01:09.025Z,84.13
2018-12-11T21:03:40.213Z,83.68
2018-12-11T21:09:19.785Z,82.96
2018-12-11T21:11:50.820Z,83.18
2018-12-11T21:14:22.118Z,83.43
2018-12-11T21:16:52.972Z,82.97
2018-12-11T21:19:23.799Z,83.38
2018-12-11T21:21:54.814Z,82.74
2018-12-11T21:24:26.180Z,83.30
2018-12-11T21:26:57.816Z,83.20
2018-12-11T21:29:32.404Z,82.90
2018-12-11T21:32:03.919Z,82.98
2018-12-11T21:34:35.461Z,83.15
2018-12-11T21:37:06.321Z,83.16
2018-12-11T21:39:37.417Z,82.61
2018-12-11T21:42:08.228Z,83.15
2018-12-11T21:44:39.199Z,83.21
2018-12-11T21:47:12.892Z,82.83
2018-12-11T21:49:46.795Z,82.84
2018-12-11T21:52:18.116Z,82.51
2018-12-11T21:54:49.115Z,83.61
2018-12-11T21:57:20.349Z,84.31
2018-12-11T21:59:54.173Z,83.57
2018-12-11T22:02:25.639Z,83.07
2018-12-11T22:04:57.332Z,83.01
2018-12-11T22:07:28.395Z,83.19
2018-12-11T22:10:00.075Z,82.63
2018-12-11T22:12:31.327Z,83.13
2018-12-11T22:15:02.627Z,83.36
2018-12-11T22:17:32.372Z,82.55
2018-12-11T22:20:04.543Z,82.51
2018-12-11T22:22:36.307Z,82.95
2018-12-11T22:25:07.478Z,82.93
2018-12-11T22:27:38.664Z,83.31
2018-12-11T22:30:10.587Z,82.35
2018-12-11T22:32:44.102Z,83.00
2018-12-11T22:35:15.442Z,83.77
2018-12-11T22:37:49.299Z,83.07
2018-12-11T22:40:20.679Z,82.32
2018-12-11T22:42:51.703Z,82.83
2018-12-11T22:45:22.943Z,82.75
2018-12-11T22:47:56.480Z,82.48
2018-12-11T22:50:28.121Z,82.29
2018-12-11T22:52:59.307Z,82.57
2018-12-11T22:55:30.764Z,82.58
2018-12-11T22:58:01.928Z,83.07
2018-12-11T23:00:36.634Z,82.87
2018-12-11T23:03:07.892Z,82.93
2018-12-11T23:05:38.982Z,83.01
2018-12-11T23:08:12.430Z,82.34
2018-12-11T23:10:43.757Z,82.40
2018-12-11T23:13:14.723Z,82.87
2018-12-11T23:15:45.725Z,83.10
2018-12-11T23:18:16.707Z,83.95
2018-12-11T23:20:47.930Z,82.51
2018-12-11T23:26:22.728Z,82.95
2018-12-11T23:28:53.899Z,82.93
2018-12-11T23:31:29.399Z,82.66
2018-12-11T23:34:01.139Z,83.76
2018-12-11T23:36:32.759Z,82.90
2018-12-11T23:39:08.442Z,82.53
2018-12-11T23:41:39.536Z,83.94
2018-12-11T23:44:10.708Z,83.07
2018-12-11T23:46:41.959Z,82.77
2018-12-11T23:49:15.280Z,82.64
2018-12-11T23:51:49.187Z,82.51
2018-12-11T23:54:20.591Z,82.94
2018-12-11T23:56:51.528Z,82.96
2018-12-11T23:59:28.956Z,83.45
